createdAt,value
2023-02-16T00:10:12.733Z,102236.03
2023-02-16T00:54:00.975Z,102233.34
2023-02-16T00:59:08.888Z,102232.47
2023-02-16T01:04:17.039Z,102237.41
2023-02-16T01:09:40.272Z,102226.44
2023-02-16T01:14:45.849Z,102219.72
2023-02-16T01:19:47.509Z,102227.31
2023-02-16T01:24:51.337Z,102220.94
2023-02-16T01:29:53.970Z,102218.78
2023-02-16T01:34:55.664Z,102227.53
2023-02-16T01:39:57.139Z,102216.16
2023-02-16T01:45:06.552Z,102199.59
2023-02-16T01:50:46.748Z,102194.00
2023-02-16T01:55:53.850Z,102194.22
2023-02-16T02:01:00.994Z,102203.84
2023-02-16T02:06:06.148Z,102188.41
2023-02-16T02:11:28.109Z,102200.72
2023-02-16T02:16:29.825Z,102193.34
2023-02-16T02:22:08.390Z,102184.56
2023-02-16T02:27:38.836Z,102174.25
2023-02-16T02:33:07.828Z,102181.41
2023-02-16T02:38:21.881Z,102170.00
2023-02-16T02:43:37.549Z,102161.38
2023-02-16T02:48:42.544Z,102159.59
2023-02-16T02:54:25.703Z,102161.84
2023-02-16T02:59:53.597Z,102156.34
2023-02-16T03:04:57.630Z,102156.56
2023-02-16T03:10:22.073Z,102146.69
2023-02-16T03:15:29.060Z,102153.66
2023-02-16T03:20:49.232Z,102148.66
2023-02-16T03:26:19.074Z,102136.38
2023-02-16T03:31:27.556Z,102125.25
2023-02-16T03:36:33.355Z,102124.97
2023-02-16T03:41:59.503Z,102129.38
2023-02-16T03:47:05.375Z,102123.28
2023-02-16T03:52:09.692Z,102123.56
2023-02-16T03:57:11.367Z,102129.06
2023-02-16T04:02:13.130Z,102140.13
2023-02-16T04:07:23.550Z,102136.38
2023-02-16T04:12:36.696Z,102130.59
2023-02-16T04:17:46.989Z,102155.44
2023-02-16T04:23:02.014Z,102148.06
2023-02-16T04:28:11.026Z,102134.88
2023-02-16T04:33:15.887Z,102141.47
2023-02-16T04:38:22.735Z,102153.19
2023-02-16T04:43:26.018Z,102136.56
2023-02-16T04:48:33.092Z,102129.47
2023-02-16T04:53:40.481Z,102132.41
2023-02-16T04:59:05.124Z,102129.84
2023-02-16T05:04:07.008Z,102129.47
2023-02-16T05:09:11.742Z,102123.56
2023-02-16T05:14:42.583Z,102125.63
2023-02-16T05:19:47.254Z,102127.78
2023-02-16T05:24:49.580Z,102130.47
2023-02-16T05:29:53.907Z,102113.13
2023-02-16T05:34:55.394Z,102111.44
2023-02-16T05:39:57.195Z,102122.88
2023-02-16T05:44:58.683Z,102114.50
2023-02-16T05:50:01.960Z,102115.28
2023-02-16T05:55:10.678Z,102102.59
2023-02-16T06:00:19.340Z,102126.31
2023-02-16T06:05:32.332Z,102105.97
2023-02-16T06:10:38.504Z,102106.84
2023-02-16T06:15:46.691Z,102092.38
2023-02-16T06:20:51.259Z,102107.34
2023-02-16T06:25:58.710Z,102101.59
2023-02-16T06:31:00.305Z,102112.44
2023-02-16T06:36:02.352Z,102103.06
2023-02-16T06:41:29.548Z,102102.47
2023-02-16T06:46:35.542Z,102112.31
2023-02-16T06:51:46.380Z,102125.19
2023-02-16T06:58:10.373Z,102129.16
2023-02-16T07:03:16.593Z,102113.72
2023-02-16T07:28:45.952Z,102124.41
2023-02-16T07:34:21.767Z,102123.03
2023-02-16T07:46:02.711Z,102131.50
2023-02-16T07:51:16.034Z,102134.25
2023-02-16T07:56:28.861Z,102127.91
2023-02-16T08:01:42.724Z,102142.66
2023-02-16T08:17:44.727Z,102161.53
2023-02-16T08:23:04.292Z,102160.81
2023-02-16T08:28:07.164Z,102156.28
2023-02-16T08:46:15.820Z,102166.81
2023-02-16T08:51:41.443Z,102156.47
2023-02-16T08:57:03.741Z,102159.22
2023-02-16T09:02:06.080Z,102173.00
2023-02-16T09:07:18.263Z,102173.00
2023-02-16T09:12:22.951Z,102172.31
2023-02-16T09:17:29.459Z,102186.38
2023-02-16T09:22:38.096Z,102193.88
2023-02-16T09:27:57.981Z,102182.28
2023-02-16T09:33:09.012Z,102188.09
2023-02-16T09:38:19.294Z,102183.94
2023-02-16T09:44:10.388Z,102192.16
2023-02-16T09:49:44.074Z,102185.97
2023-02-16T09:54:50.917Z,102178.72
2023-02-16T09:59:58.935Z,102187.31
2023-02-16T10:05:17.475Z,102187.94
2023-02-16T10:10:26.083Z,102171.59
2023-02-16T10:15:32.365Z,102168.53
2023-02-16T10:20:43.707Z,102182.69
2023-02-16T10:26:01.561Z,102188.53
2023-02-16T10:31:13.342Z,102187.94
2023-02-16T10:36:32.090Z,102183.56
2023-02-16T10:42:10.999Z,102189.34
2023-02-16T10:47:39.493Z,102164.81
2023-02-16T10:52:43.924Z,102178.53
2023-02-16T10:58:06.033Z,102167.38
2023-02-16T11:03:13.210Z,102176.97
2023-02-16T11:08:17.633Z,102179.72
2023-02-16T11:13:33.022Z,102187.63
2023-02-16T11:18:43.549Z,102187.41
2023-02-16T11:24:02.823Z,102184.91
2023-02-16T11:29:19.474Z,102165.19
2023-02-16T11:34:33.218Z,102174.25
2023-02-16T11:39:39.394Z,102164.88
2023-02-16T11:44:57.632Z,102158.16
2023-02-16T11:50:23.739Z,102159.63
2023-02-16T11:55:36.547Z,102148.03
2023-02-16T12:01:02.067Z,102137.28
2023-02-16T12:06:12.007Z,102132.38
2023-02-16T12:11:25.527Z,102129.09
2023-02-16T12:17:02.324Z,102122.63
2023-02-16T12:22:15.186Z,102110.81
2023-02-16T12:27:25.338Z,102111.44
2023-02-16T12:32:52.310Z,102105.41
2023-02-16T12:37:56.963Z,102098.19
2023-02-16T12:43:32.309Z,102084.97
2023-02-16T12:48:51.590Z,102053.38
2023-02-16T12:54:22.634Z,102047.63
2023-02-16T12:59:46.230Z,102041.13
2023-02-16T13:04:56.754Z,102044.94
2023-02-16T13:10:25.233Z,102021.94
2023-02-16T13:15:42.475Z,102003.47
2023-02-16T13:20:49.614Z,101994.59
2023-02-16T13:26:18.043Z,102024.97
2023-02-16T13:31:54.606Z,102015.19
2023-02-16T13:37:06.051Z,102014.19
2023-02-16T13:42:42.761Z,102000.66
2023-02-16T13:47:49.379Z,101991.09
2023-02-16T13:52:53.443Z,101982.66
2023-02-16T13:58:01.287Z,101974.03
2023-02-16T14:03:12.265Z,101961.22
2023-02-16T14:08:19.004Z,101958.88
2023-02-16T14:13:38.596Z,101952.91
2023-02-16T14:18:43.261Z,101951.34
2023-02-16T14:23:46.261Z,101948.13
2023-02-16T14:29:08.235Z,101937.22
2023-02-16T14:34:19.435Z,101945.13
2023-02-16T14:39:22.864Z,101927.91
2023-02-16T14:45:03.525Z,101923.03
2023-02-16T14:50:17.214Z,101919.03
2023-02-16T14:56:01.470Z,101919.31
2023-02-16T15:01:06.109Z,101924.72
2023-02-16T15:06:11.492Z,101907.34
2023-02-16T15:11:17.141Z,101912.97
2023-02-16T15:16:21.038Z,101903.91
2023-02-16T15:21:28.558Z,101910.06
2023-02-16T15:26:35.453Z,101906.13
2023-02-16T15:31:38.263Z,101901.22
2023-02-16T15:36:42.878Z,101895.00
2023-02-16T15:41:49.529Z,101899.03
2023-02-16T15:46:52.300Z,101901.63
2023-02-16T15:51:57.802Z,101900.34
2023-02-16T15:57:21.787Z,101895.94
2023-02-16T16:02:39.770Z,101908.63
2023-02-16T16:07:41.848Z,101905.13
2023-02-16T16:12:44.505Z,101904.28
2023-02-16T16:17:46.751Z,101906.47
2023-02-16T16:22:59.702Z,101902.41
2023-02-16T16:28:10.306Z,101897.44
2023-02-16T16:33:13.971Z,101901.19
2023-02-16T16:38:27.959Z,101896.50
2023-02-16T16:43:37.245Z,101906.66
2023-02-16T16:48:46.667Z,101903.75
2023-02-16T16:54:05.592Z,101895.69
2023-02-16T16:59:07.702Z,101894.56
2023-02-16T17:04:10.797Z,101891.06
2023-02-16T17:09:15.833Z,101892.47
2023-02-16T17:14:19.968Z,101886.50
2023-02-16T17:19:23.069Z,101875.41
2023-02-16T17:24:25.462Z,101870.78
2023-02-16T17:29:26.946Z,101876.19
2023-02-16T17:34:32.482Z,101871.72
2023-02-16T17:39:35.144Z,101860.03
2023-02-16T17:44:36.597Z,101861.19
2023-02-16T17:49:38.627Z,101860.41
2023-02-16T17:54:40.142Z,101854.41
2023-02-16T17:59:42.203Z,101838.03
2023-02-16T18:04:43.845Z,101837.09
2023-02-16T18:09:46.992Z,101829.56
2023-02-16T18:14:48.484Z,101827.59
2023-02-16T18:19:50.005Z,101832.13
2023-02-16T18:24:51.596Z,101822.69
2023-02-16T18:29:53.250Z,101813.34
2023-02-16T18:35:00.960Z,101813.34
2023-02-16T18:40:03.035Z,101809.72
2023-02-16T18:45:06.175Z,101810.31
2023-02-16T18:50:08.112Z,101799.66
2023-02-16T18:55:10.905Z,101805.75
2023-02-16T19:00:14.838Z,101805.66
2023-02-16T19:05:16.770Z,101813.00
2023-02-16T19:10:19.441Z,101799.53
2023-02-16T19:15:21.065Z,101796.91
2023-02-16T19:20:23.998Z,101796.22
2023-02-16T19:25:26.852Z,101800.31
2023-02-16T19:30:32.126Z,101794.31
2023-02-16T19:35:38.244Z,101790.88
2023-02-16T19:40:44.039Z,101785.91
2023-02-16T19:45:49.034Z,101779.09
2023-02-16T19:51:20.627Z,101770.47
2023-02-16T19:56:36.680Z,101753.06
2023-02-16T20:01:44.021Z,101750.56
2023-02-16T20:06:57.917Z,101754.41
2023-02-16T20:12:04.729Z,101756.09
2023-02-16T20:17:06.711Z,101737.66
2023-02-16T20:22:14.039Z,101737.03
2023-02-16T20:27:18.311Z,101731.13
2023-02-16T20:32:24.835Z,101730.25
2023-02-16T20:37:39.111Z,101722.03
2023-02-16T20:42:40.791Z,101710.69
2023-02-16T20:47:50.306Z,101718.50
2023-02-16T20:52:54.463Z,101720.25
2023-02-16T20:58:00.357Z,101704.72
2023-02-16T21:03:19.030Z,101702.41
2023-02-16T21:08:20.894Z,101700.31
2023-02-16T21:13:24.683Z,101687.56
2023-02-16T21:18:26.901Z,101683.44
2023-02-16T21:23:36.256Z,101665.19
2023-02-16T21:34:07.756Z,101652.34
2023-02-16T21:39:09.325Z,101658.75
2023-02-16T21:44:17.857Z,101654.69
2023-02-16T21:49:21.448Z,101649.41
2023-02-16T21:54:42.951Z,101620.28
2023-02-16T21:59:50.478Z,101624.44
2023-02-16T22:04:53.259Z,101616.22
2023-02-16T22:09:54.860Z,101615.31
2023-02-16T22:14:56.491Z,101614.34
2023-02-16T22:20:09.413Z,101615.22
2023-02-16T22:25:13.578Z,101615.31
2023-02-16T22:30:17.802Z,101622.09
2023-02-16T22:35:22.507Z,101634.19
2023-02-16T22:40:24.025Z,101633.34
2023-02-16T22:45:27.051Z,101636.84
2023-02-16T22:50:30.423Z,101640.25
2023-02-16T22:55:32.090Z,101637.91
2023-02-16T23:00:35.694Z,101643.94
2023-02-16T23:05:37.841Z,101642.34
2023-02-16T23:10:59.884Z,101627.78
2023-02-16T23:16:10.847Z,101644.16
2023-02-16T23:21:24.148Z,101653.63
2023-02-16T23:26:33.396Z,101656.94
2023-02-16T23:31:39.549Z,101653.47
2023-02-16T23:36:41.606Z,101649.34
2023-02-16T23:41:45.163Z,101649.47
2023-02-16T23:46:46.820Z,101639.97
2023-02-16T23:51:49.438Z,101652.00
2023-02-16T23:56:52.781Z,101660.66
